Terminal Aerodrome Forecast
Issued by NWS

Home | Current Version | Previous Version | Text Only | Print | Product List | Glossary On
Versions: 1 2 3 4 5 6 7 8 9 10 11 12 13 14 15 16 17 18 19 20 21 22 23 24 25 26 27 28 29 30 31 32 33 34 35 36 37 38 39 40 41
000
FTUS45 KBOU 011122
TAFAPA
TAF
KAPA 011122Z 0112/0212 18008KT P6SM FEW140 SCT220
     FM011400 24006KT P6SM FEW200
     FM011600 34006KT P6SM FEW100 SCT200
     FM011900 04007KT P6SM FEW090 SCT150
     FM012300 15010KT P6SM SCT090 BKN140
     FM020200 18010KT P6SM FEW090 SCT140=

USA.gov is the U.S. government's official web portal to all federal, state and local government web resources and services.